Terminal Aerodrome Forecast
Issued by NWS Bismarck, ND

Home | Current Version | Previous Version | Text Only | Print | Product List | Glossary Off
Versions: 1 2 3 4 5 6 7 8 9 10 11 12 13 14 15 16

243
FTUS43 KBIS 041740
TAFISN
TAF
KISN 041740Z 0418/0518 22005KT P6SM SCT250
     FM042200 18006KT P6SM BKN070
     FM050100 20004KT 3SM -SN BR OVC030
     FM050300 21004KT 1SM -SN BR OVC010
     FM050700 29005KT 5SM -SN BR OVC025
     FM050900 32006KT P6SM OVC035=

USA.gov is the U.S. government's official web portal to all federal, state and local government web resources and services.